Time;durP1;ratioP1;P1;durP2;ratioP2;P2;SDS_P1;SDS_P2;PMS_P1;PMS_P2;Temp;Humidity;BMP_temperature;BMP_pressure;BME280_temperature;BME280_humidity;BME280_pressure;Samples;Min_cycle;Max_cycle;Signal;HPM_P1;HPM_P2
2022/09/15 00:01:20;;;;;;;;;2.25;2.25;;;;;24.84;50.79;100267.53;5099484;27;46435;-54
2022/09/15 00:03:46;;;;;;;;;3.25;2.00;;;;;24.85;50.94;100269.22;5098514;27;45341;-49
2022/09/15 00:06:11;;;;;;;;;3.00;3.00;;;;;24.83;50.68;100256.09;5098419;27;45298;-51
2022/09/15 00:08:37;;;;;;;;;2.75;2.75;;;;;24.84;50.87;100259.59;5097884;27;45297;-48
2022/09/15 00:11:30;;;;;;;;;3.00;3.00;;;;;24.84;50.66;100271.03;5097759;27;46848;-46
2022/09/15 00:13:58;;;;;;;;;2.25;2.25;;;;;24.84;51.25;100263.06;5096081;27;45391;-47
2022/09/15 00:16:25;;;;;;;;;2.25;2.25;;;;;24.83;51.06;100263.22;5097993;27;45462;-48
2022/09/15 00:18:51;;;;;;;;;2.00;2.00;;;;;24.83;50.81;100265.84;5098013;27;45725;-46
2022/09/15 00:21:21;;;;;;;;;1.00;1.00;;;;;24.83;50.55;100260.56;5097600;27;45472;-46
2022/09/15 00:23:48;;;;;;;;;1.00;1.00;;;;;24.83;50.51;100269.34;5096885;27;45384;-45
2022/09/15 00:26:16;;;;;;;;;2.00;2.00;;;;;24.84;50.58;100264.88;5096931;27;45310;-49
2022/09/15 00:28:42;;;;;;;;;1.25;1.25;;;;;24.82;50.98;100265.00;5097465;27;45569;-47
2022/09/15 00:31:10;;;;;;;;;2.00;2.00;;;;;24.83;51.15;100268.50;5097130;27;46900;-48
2022/09/15 00:33:36;;;;;;;;;1.25;1.25;;;;;24.81;50.33;100259.84;5096854;27;45279;-48
2022/09/15 00:36:04;;;;;;;;;1.25;1.25;;;;;24.82;50.94;100265.00;5097681;27;45385;-47
2022/09/15 00:38:30;;;;;;;;;2.25;1.00;;;;;24.81;51.04;100265.97;5097522;27;45402;-48
2022/09/15 00:40:57;;;;;;;;;1.00;1.00;;;;;24.81;50.41;100260.66;5097695;27;45974;-48
2022/09/15 00:43:57;;;;;;;;;1.50;1.50;;;;;24.82;50.80;100264.16;5097465;27;45675;-47
2022/09/15 00:46:42;;;;;;;;;1.75;1.75;;;;;24.81;50.85;100273.09;5096781;27;45377;-47
2022/09/15 00:49:12;;;;;;;;;3.00;2.00;;;;;24.80;50.35;100274.06;5097526;27;45539;-46
2022/09/15 00:51:46;;;;;;;;;1.00;1.00;;;;;24.81;50.40;100278.38;5097239;27;46414;-47
2022/09/15 00:54:32;;;;;;;;;1.00;1.00;;;;;24.79;50.34;100278.53;5097126;27;45722;-50
2022/09/15 00:57:02;;;;;;;;;2.00;1.25;;;;;24.80;50.29;100282.00;5100629;27;45352;-47
2022/09/15 00:59:30;;;;;;;;;2.00;1.00;;;;;24.80;50.98;100282.00;5113927;27;45305;-49
2022/09/15 01:02:19;;;;;;;;;2.00;0.50;;;;;24.79;50.38;100290.91;5098634;27;46275;-46
2022/09/15 01:04:44;;;;;;;;;1.00;1.00;;;;;24.79;50.42;100297.09;5096429;27;45795;-47
2022/09/15 01:07:14;;;;;;;;;2.00;2.00;;;;;24.79;50.67;100296.22;5096181;27;45361;-45
2022/09/15 01:09:52;;;;;;;;;0.75;0.75;;;;;24.80;50.89;100300.56;5097277;27;45365;-49
2022/09/15 01:12:19;;;;;;;;;0.00;0.00;;;;;24.79;50.47;100304.16;5097251;27;46607;-47
2022/09/15 01:14:45;;;;;;;;;0.50;0.50;;;;;24.79;50.68;100301.53;5096979;27;45086;-52
2022/09/15 01:17:48;;;;;;;;;0.00;0.00;;;;;24.79;50.29;100301.53;5101318;27;45263;-47
2022/09/15 01:20:20;;;;;;;;;1.00;1.00;;;;;24.78;50.33;100306.00;5094979;27;45421;-50
2022/09/15 01:23:14;;;;;;;;;1.00;1.00;;;;;24.78;50.13;100307.78;5114482;27;45849;-49
2022/09/15 01:26:01;;;;;;;;;1.00;1.00;;;;;24.77;50.31;100306.97;5092817;27;45592;-49
2022/09/15 01:28:55;;;;;;;;;2.00;0.25;;;;;24.78;50.22;100308.66;5097339;27;45279;-49
2022/09/15 01:31:23;;;;;;;;;1.00;1.00;;;;;24.77;50.12;100314.06;5097098;27;45173;-52
2022/09/15 01:34:01;;;;;;;;;0.50;0.50;;;;;24.76;50.27;100302.63;5095692;27;47468;-52
2022/09/15 01:36:39;;;;;;;;;1.00;1.00;;;;;24.77;50.65;100311.41;5097607;27;45404;-50
2022/09/15 01:39:14;;;;;;;;;1.00;1.00;;;;;24.76;50.76;100307.91;5103527;27;44760;-52
2022/09/15 01:41:47;;;;;;;;;0.00;0.00;;;;;24.76;50.45;100318.53;5107325;27;45203;-49
2022/09/15 01:44:37;;;;;;;;;0.00;0.00;;;;;24.76;50.13;100309.72;5102834;27;46577;-48
2022/09/15 01:47:07;;;;;;;;;1.25;0.75;;;;;24.76;50.06;100321.16;5096644;27;45336;-48
2022/09/15 01:49:43;;;;;;;;;0.00;0.00;;;;;24.76;50.04;100312.38;5097361;27;45457;-49
2022/09/15 01:52:09;;;;;;;;;2.00;1.00;;;;;24.75;50.56;100311.53;5099390;27;45401;-47
2022/09/15 01:54:47;;;;;;;;;1.00;1.00;;;;;24.74;50.48;100314.31;5098988;27;45692;-49
2022/09/15 01:57:16;;;;;;;;;1.00;1.00;;;;;24.75;50.17;100316.00;5097719;27;45640;-48
2022/09/15 01:59:44;;;;;;;;;1.00;1.00;;;;;24.75;50.40;100316.84;5100236;27;45282;-50
2022/09/15 02:02:38;;;;;;;;;0.00;0.00;;;;;24.75;49.98;100318.66;5099886;27;45336;-47
2022/09/15 02:05:10;;;;;;;;;0.00;0.00;;;;;24.75;50.44;100316.00;5098102;27;46279;-47
2022/09/15 02:07:44;;;;;;;;;1.00;1.00;;;;;24.75;50.01;100318.66;5099556;27;45349;-49
2022/09/15 02:10:12;;;;;;;;;0.50;0.00;;;;;24.74;50.38;100316.97;5100321;27;45384;-50
2022/09/15 02:12:50;;;;;;;;;0.00;0.00;;;;;24.74;50.31;100319.63;5098953;27;45337;-46
2022/09/15 02:15:29;;;;;;;;;0.25;0.25;;;;;24.74;50.02;100319.63;5099934;27;46384;-47
2022/09/15 02:17:56;;;;;;;;;0.00;0.00;;;;;24.73;50.03;100317.94;5111420;27;45463;-47
2022/09/15 02:20:47;;;;;;;;;0.50;0.50;;;;;24.73;49.94;100317.94;5111521;27;45414;-51
2022/09/15 02:23:28;;;;;;;;;0.00;0.00;;;;;24.72;50.00;100314.44;5100050;27;45343;-46
2022/09/15 02:26:04;;;;;;;;;0.50;0.00;;;;;24.73;49.75;100312.63;5099601;27;46784;-46
2022/09/15 02:28:35;;;;;;;;;0.00;0.00;;;;;24.72;49.71;100322.38;5102591;27;45664;-47
2022/09/15 02:31:02;;;;;;;;;2.00;1.00;;;;;24.72;50.42;100317.09;5115005;27;45384;-45
2022/09/15 02:33:34;;;;;;;;;0.00;0.00;;;;;24.72;50.34;100317.09;5114750;27;45263;-49
2022/09/15 02:36:02;;;;;;;;;0.00;0.00;;;;;24.72;50.43;100316.25;5118889;27;45760;-47
2022/09/15 02:38:35;;;;;;;;;1.00;0.75;;;;;24.72;50.33;100316.25;5118561;27;45406;-46
2022/09/15 02:41:01;;;;;;;;;1.00;1.00;;;;;24.71;49.79;100312.75;5114766;27;45344;-47
2022/09/15 02:43:28;;;;;;;;;0.50;0.50;;;;;24.71;49.77;100310.09;5112975;27;45351;-49
2022/09/15 02:45:54;;;;;;;;;1.00;0.50;;;;;24.70;50.09;100322.50;5111215;27;45613;-46
2022/09/15 02:48:19;;;;;;;;;2.00;2.00;;;;;24.70;49.91;100319.88;5106419;27;45445;-47
2022/09/15 02:50:48;;;;;;;;;1.00;1.00;;;;;24.70;49.96;100325.16;5099930;27;45246;-46
2022/09/15 02:53:13;;;;;;;;;1.75;1.75;;;;;24.69;49.53;100320.81;5099651;27;45606;-46
2022/09/15 02:55:38;;;;;;;;;1.75;1.75;;;;;24.70;49.70;100329.59;5099435;27;46286;-48
2022/09/15 02:58:04;;;;;;;;;1.25;1.25;;;;;24.70;50.14;100327.81;5099583;27;45216;-49
2022/09/15 03:00:29;;;;;;;;;1.00;1.00;;;;;24.69;50.17;100318.19;5099956;27;45432;-46
2022/09/15 03:02:55;;;;;;;;;2.00;2.00;;;;;24.69;49.97;100315.53;5098988;27;45389;-46
2022/09/15 03:05:24;;;;;;;;;1.50;1.50;;;;;24.70;49.33;100321.66;5099208;27;46447;-49
2022/09/15 03:07:51;;;;;;;;;2.00;2.00;;;;;24.70;50.07;100324.31;5098537;27;45671;-49
2022/09/15 03:10:16;;;;;;;;;2.00;2.00;;;;;24.68;49.61;100324.44;5098750;27;45371;-47
2022/09/15 03:12:45;;;;;;;;;2.00;2.00;;;;;24.69;49.66;100331.44;5098906;27;45302;-46
2022/09/15 03:15:13;;;;;;;;;2.25;2.00;;;;;24.69;49.91;100318.19;5099836;27;46555;-46
2022/09/15 03:17:40;;;;;;;;;3.00;2.00;;;;;24.69;49.80;100328.78;5099671;27;45398;-47
2022/09/15 03:20:08;;;;;;;;;2.50;2.50;;;;;24.68;49.73;100331.53;5117744;27;44694;-49
2022/09/15 03:22:34;;;;;;;;;4.00;3.00;;;;;24.69;49.56;100327.94;5122771;27;44911;-46
2022/09/15 03:25:00;;;;;;;;;3.00;3.00;;;;;24.68;49.01;100327.09;5115783;27;45380;-47
2022/09/15 03:27:26;;;;;;;;;4.50;3.75;;;;;24.67;48.86;100325.38;5116526;27;45717;-46
2022/09/15 03:29:51;;;;;;;;;3.00;3.00;;;;;24.66;48.99;100323.69;5101499;27;45329;-48
2022/09/15 03:32:17;;;;;;;;;3.00;3.00;;;;;24.65;48.86;100326.47;5099996;27;45408;-50
2022/09/15 03:34:42;;;;;;;;;2.50;2.00;;;;;24.65;49.29;100332.59;5099019;27;46337;-47
2022/09/15 03:37:07;;;;;;;;;4.00;4.00;;;;;24.65;48.59;100329.94;5100041;27;45368;-48
2022/09/15 03:39:33;;;;;;;;;4.50;3.00;;;;;24.64;49.17;100330.91;5114829;27;45417;-54
2022/09/15 03:41:58;;;;;;;;;3.00;3.00;;;;;24.64;48.48;100336.22;5103257;27;45613;-48
2022/09/15 03:44:24;;;;;;;;;2.75;2.25;;;;;24.64;48.33;100328.25;5098569;27;45530;-47
2022/09/15 03:46:50;;;;;;;;;1.50;1.50;;;;;24.64;49.06;100328.25;5096843;27;45257;-48
2022/09/15 03:49:16;;;;;;;;;4.75;3.75;;;;;24.63;48.86;100329.25;5098330;27;45395;-51
2022/09/15 03:51:41;;;;;;;;;2.50;2.50;;;;;24.63;48.52;100331.06;5102195;27;45589;-54
2022/09/15 03:54:07;;;;;;;;;2.00;2.00;;;;;24.62;48.60;100332.88;5113876;27;45227;-48
2022/09/15 03:56:33;;;;;;;;;2.00;2.00;;;;;24.62;48.32;100327.56;5100237;27;45378;-47
2022/09/15 03:59:03;;;;;;;;;3.50;3.50;;;;;24.61;48.20;100331.19;5098945;27;45244;-51
2022/09/15 04:01:29;;;;;;;;;2.25;2.25;;;;;24.61;48.06;100333.84;5098701;27;45428;-48
2022/09/15 04:03:55;;;;;;;;;3.50;3.50;;;;;24.61;47.85;100335.63;5096433;27;46570;-48
2022/09/15 04:06:21;;;;;;;;;3.25;3.25;;;;;24.60;48.04;100340.09;5098225;27;45242;-48
2022/09/15 04:08:48;;;;;;;;;4.50;2.00;;;;;24.60;48.05;100344.53;5097811;27;45404;-50
2022/09/15 04:11:14;;;;;;;;;2.25;2.25;;;;;24.59;48.20;100340.19;5098109;27;45625;-49
2022/09/15 04:13:41;;;;;;;;;2.25;2.25;;;;;24.59;48.18;100346.34;5097429;27;47342;-47
2022/09/15 04:16:12;;;;;;;;;2.00;2.00;;;;;24.58;47.89;100347.31;5097914;27;45388;-47
2022/09/15 04:18:37;;;;;;;;;3.00;3.00;;;;;24.57;47.86;100350.09;5096680;27;45383;-47
2022/09/15 04:21:10;;;;;;;;;3.00;3.00;;;;;24.58;48.15;100351.78;5096840;27;45897;-49
2022/09/15 04:23:36;;;;;;;;;3.25;3.25;;;;;24.57;47.53;100348.28;5097264;27;47184;-48
2022/09/15 04:26:04;;;;;;;;;6.75;4.00;;;;;24.57;47.77;100352.75;5097593;27;45244;-48
2022/09/15 04:28:35;;;;;;;;;2.25;2.25;;;;;24.56;47.68;100351.91;5098226;27;45305;-50
2022/09/15 04:31:08;;;;;;;;;2.50;2.50;;;;;24.57;47.64;100364.19;5098008;27;45579;-48
2022/09/15 04:33:35;;;;;;;;;4.25;3.50;;;;;24.56;47.35;100359.84;5096559;27;45691;-49
2022/09/15 04:36:04;;;;;;;;;5.00;3.75;;;;;24.55;47.84;100361.66;5097591;27;45951;-48
2022/09/15 04:38:30;;;;;;;;;3.00;3.00;;;;;24.54;47.29;100356.47;5098012;27;45475;-51
2022/09/15 04:40:56;;;;;;;;;4.75;4.50;;;;;24.54;46.99;100356.47;5098074;27;45355;-50
2022/09/15 04:43:21;;;;;;;;;5.00;3.00;;;;;24.54;47.55;100364.41;5097508;27;47395;-48
2022/09/15 04:45:47;;;;;;;;;4.50;4.00;;;;;24.53;47.38;100368.03;5097505;27;45326;-51
2022/09/15 04:48:13;;;;;;;;;5.75;4.75;;;;;24.53;46.85;100365.38;5110894;27;45326;-50
2022/09/15 04:50:39;;;;;;;;;4.25;4.00;;;;;24.51;46.99;100368.16;5113044;27;45364;-49
2022/09/15 04:53:05;;;;;;;;;7.75;6.50;;;;;24.52;47.54;100374.31;5103392;27;46387;-50
2022/09/15 04:55:32;;;;;;;;;6.25;6.25;;;;;24.50;46.81;100374.41;5097764;27;45258;-48
2022/09/15 04:57:57;;;;;;;;;7.00;7.00;;;;;24.51;46.74;100383.22;5107985;27;45399;-49
2022/09/15 05:00:23;;;;;;;;;5.25;5.25;;;;;24.51;47.03;100384.06;5110399;27;45322;-53
2022/09/15 05:02:49;;;;;;;;;9.25;5.25;;;;;24.49;46.54;100387.81;5096240;27;46467;-48
2022/09/15 05:05:14;;;;;;;;;6.25;6.00;;;;;24.49;46.78;100399.22;5096578;27;61884;-51
2022/09/15 05:07:39;;;;;;;;;6.00;6.00;;;;;24.48;46.67;100402.84;5096507;27;45424;-55
2022/09/15 05:10:05;;;;;;;;;6.00;6.00;;;;;24.45;47.15;100394.28;5097340;27;45380;-54
2022/09/15 05:12:30;;;;;;;;;6.00;4.00;;;;;24.46;46.92;100404.78;5096897;27;46360;-47
2022/09/15 05:14:56;;;;;;;;;7.00;6.00;;;;;24.46;46.83;100412.75;5096784;27;45496;-55
2022/09/15 05:17:21;;;;;;;;;5.50;5.00;;;;;24.46;46.74;100406.56;5095931;27;45309;-52
2022/09/15 05:19:46;;;;;;;;;6.00;5.00;;;;;24.46;46.93;100412.75;5097019;27;45310;-50
2022/09/15 05:22:12;;;;;;;;;5.75;5.75;;;;;24.46;46.20;100419.81;5096725;27;47155;-51
2022/09/15 05:24:37;;;;;;;;;6.25;5.25;;;;;24.45;46.87;100419.00;5096440;27;45567;-49
2022/09/15 05:27:02;;;;;;;;;4.75;3.00;;;;;24.47;46.79;100424.16;5096674;27;45274;-53
2022/09/15 05:29:28;;;;;;;;;6.00;6.00;;;;;24.44;46.34;100419.09;5097196;27;45292;-55
2022/09/15 05:31:53;;;;;;;;;5.00;4.25;;;;;24.45;46.36;100424.28;5095112;27;66237;-50
2022/09/15 05:34:18;;;;;;;;;5.00;5.00;;;;;24.45;46.71;100423.44;5100025;27;60105;-49
2022/09/15 05:36:44;;;;;;;;;5.50;5.50;;;;;24.44;46.00;100427.03;5100401;27;45334;-52
2022/09/15 05:39:09;;;;;;;;;5.25;5.25;;;;;24.44;46.83;100429.69;5100335;27;45251;-53
2022/09/15 05:41:34;;;;;;;;;4.50;4.50;;;;;24.43;46.66;100428.88;5100004;27;57034;-50
2022/09/15 05:44:00;;;;;;;;;6.50;4.50;;;;;24.44;46.52;100433.19;5100740;27;45202;-54
2022/09/15 05:46:26;;;;;;;;;7.75;4.00;;;;;24.44;46.16;100435.84;5100105;27;45434;-56
2022/09/15 05:48:55;;;;;;;;;5.00;5.00;;;;;24.44;46.49;100435.00;5100542;27;45340;-49
2022/09/15 05:51:21;;;;;;;;;5.00;5.00;;;;;24.42;46.26;100432.47;5100655;27;45668;-56
2022/09/15 05:53:46;;;;;;;;;6.75;6.00;;;;;24.43;46.00;100438.59;5108639;27;45325;-50
2022/09/15 05:56:13;;;;;;;;;6.00;6.00;;;;;24.42;45.86;100442.25;5118551;27;45141;-49
2022/09/15 05:58:41;;;;;;;;;5.50;5.25;;;;;24.44;45.91;100440.28;5108873;27;45382;-50
2022/09/15 06:01:10;;;;;;;;;5.00;5.00;;;;;24.42;45.89;100436.94;5102534;27;45649;-51
2022/09/15 06:03:35;;;;;;;;;4.75;4.75;;;;;24.42;46.07;100444.88;5103916;27;45690;-51
2022/09/15 06:06:04;;;;;;;;;5.50;5.50;;;;;24.42;46.37;100447.53;5102167;27;45404;-52
2022/09/15 06:08:35;;;;;;;;;5.00;4.50;;;;;24.41;46.40;100454.63;5107405;27;45365;-50
2022/09/15 06:11:09;;;;;;;;;4.75;4.75;;;;;24.42;46.08;100460.78;5107881;27;45574;-47
2022/09/15 06:13:35;;;;;;;;;6.75;5.00;;;;;24.41;45.81;100456.44;5103187;27;45297;-46
2022/09/15 06:16:06;;;;;;;;;6.50;5.25;;;;;24.41;46.25;100464.38;5102441;27;45413;-50
2022/09/15 06:18:33;;;;;;;;;5.75;4.50;;;;;24.42;46.13;100471.38;5110855;27;45305;-52
2022/09/15 06:21:07;;;;;;;;;5.00;5.00;;;;;24.41;45.85;100467.03;5114649;27;46507;-53
2022/09/15 06:23:33;;;;;;;;;6.75;5.50;;;;;24.40;45.76;100471.47;5113949;27;45696;-53
2022/09/15 06:26:05;;;;;;;;;5.25;5.00;;;;;24.41;45.68;100473.16;5118147;27;45239;-55
2022/09/15 06:28:31;;;;;;;;;5.50;5.50;;;;;24.40;46.36;100482.06;5120025;27;45748;-48
2022/09/15 06:30:56;;;;;;;;;5.50;5.50;;;;;24.40;45.95;100482.06;5118876;27;45558;-56
2022/09/15 06:33:22;;;;;;;;;7.25;4.00;;;;;24.40;45.65;100479.41;5117920;27;44708;-53
2022/09/15 06:35:47;;;;;;;;;11.00;5.75;;;;;24.40;46.30;100484.72;5118942;27;45169;-51
2022/09/15 06:38:13;;;;;;;;;12.00;6.00;;;;;24.39;45.67;100489.19;5120787;27;49968;-53
2022/09/15 06:40:38;;;;;;;;;6.25;4.50;;;;;24.39;45.65;100494.47;5118959;27;60949;-51
2022/09/15 06:43:03;;;;;;;;;7.67;6.33;;;;;24.38;45.57;100495.44;5118964;27;63001;-49
2022/09/15 06:45:29;;;;;;;;;5.75;5.75;;;;;24.38;45.60;100495.44;5116178;27;45640;-46
2022/09/15 06:47:54;;;;;;;;;6.00;6.00;;;;;24.37;45.38;100492.88;5103106;27;45255;-52
2022/09/15 06:50:20;;;;;;;;;8.50;7.50;;;;;24.39;45.84;100505.06;5103062;27;45488;-49
2022/09/15 06:52:45;;;;;;;;;7.25;6.00;;;;;24.38;45.91;100506.03;5116432;27;45711;-51
2022/09/15 06:55:11;;;;;;;;;8.00;6.00;;;;;24.38;45.57;100500.75;5119025;27;45232;-51
2022/09/15 06:57:36;;;;;;;;;7.25;7.25;;;;;24.38;46.03;100506.03;5119546;27;44912;-49
2022/09/15 07:00:03;;;;;;;;;8.00;6.75;;;;;24.39;45.55;100513.03;5123204;27;45728;-48
2022/09/15 07:02:29;;;;;;;;;8.00;8.00;;;;;24.38;45.88;100513.97;5124155;27;45023;-47
2022/09/15 07:04:55;;;;;;;;;10.50;8.00;;;;;24.39;45.68;100515.69;5115396;27;44763;-47
2022/09/15 07:07:20;;;;;;;;;10.75;7.75;;;;;24.39;45.38;100518.31;5103827;27;45401;-47
2022/09/15 07:09:45;;;;;;;;;6.25;6.25;;;;;24.39;45.40;100522.75;5098939;27;46252;-47
2022/09/15 07:12:11;;;;;;;;;7.50;7.50;;;;;24.41;45.44;100522.66;5099053;27;45234;-49
2022/09/15 07:14:36;;;;;;;;;8.25;7.25;;;;;24.39;45.87;100518.31;5098424;27;45386;-48
2022/09/15 07:17:01;;;;;;;;;7.25;6.25;;;;;24.41;46.00;100530.59;5098288;27;47759;-49
2022/09/15 07:19:27;;;;;;;;;9.00;7.75;;;;;24.41;45.87;100533.25;5097473;27;47101;-50
2022/09/15 07:21:52;;;;;;;;;10.00;8.00;;;;;24.41;45.12;100527.97;5098384;27;45283;-50
2022/09/15 07:24:17;;;;;;;;;8.00;8.00;;;;;24.41;45.13;100535.91;5099076;27;45235;-50
2022/09/15 07:26:42;;;;;;;;;9.00;8.25;;;;;24.41;45.76;100531.44;5098630;27;45306;-48
2022/09/15 07:29:08;;;;;;;;;9.00;7.25;;;;;24.43;45.36;100544.56;5098419;27;46337;-46
2022/09/15 07:31:35;;;;;;;;;5.50;5.25;;;;;24.42;45.31;100529.66;5097433;27;45736;-46
2022/09/15 07:34:01;;;;;;;;;9.75;7.25;;;;;24.42;45.62;100541.06;5098948;27;45427;-47
2022/09/15 07:36:28;;;;;;;;;10.75;7.75;;;;;24.44;45.33;100540.94;5099496;27;45306;-46
2022/09/15 07:38:53;;;;;;;;;11.00;7.50;;;;;24.43;45.55;100544.56;5115399;27;45647;-50
2022/09/15 07:41:21;;;;;;;;;8.75;8.00;;;;;24.43;45.13;100545.41;5101297;27;45317;-49
2022/09/15 07:43:49;;;;;;;;;8.25;7.75;;;;;24.44;45.25;100544.47;5097042;27;45387;-47
2022/09/15 07:46:15;;;;;;;;;8.00;8.00;;;;;24.45;44.97;100553.22;5098258;27;45659;-51
2022/09/15 07:48:44;;;;;;;;;12.00;8.00;;;;;24.44;45.48;100551.53;5097913;27;46262;-48
2022/09/15 07:51:09;;;;;;;;;8.00;8.00;;;;;24.45;45.28;100554.09;5098361;27;45811;-47
2022/09/15 07:53:35;;;;;;;;;9.50;8.25;;;;;24.45;45.25;100553.22;5097481;27;45336;-49
2022/09/15 07:56:00;;;;;;;;;12.25;8.00;;;;;24.46;45.21;100549.63;5098259;27;45383;-45
2022/09/15 07:58:26;;;;;;;;;6.25;6.00;;;;;24.46;45.09;100554.91;5097435;27;48126;-48
2022/09/15 08:00:51;;;;;;;;;5.00;4.75;;;;;24.46;44.83;100560.22;5097042;27;45261;-47
2022/09/15 08:03:16;;;;;;;;;7.00;7.00;;;;;24.46;44.92;100558.44;5098120;27;45222;-49
2022/09/15 08:05:42;;;;;;;;;8.25;8.00;;;;;24.47;44.71;100564.56;5097899;27;45559;-47
2022/09/15 08:08:07;;;;;;;;;6.50;6.50;;;;;24.48;45.28;100574.19;5097637;27;45204;-46
2022/09/15 08:10:33;;;;;;;;;9.00;7.25;;;;;24.48;44.87;100571.56;5097613;27;45295;-45
2022/09/15 08:12:59;;;;;;;;;8.75;8.75;;;;;24.48;44.95;100563.59;5098876;27;45218;-46
2022/09/15 08:15:24;;;;;;;;;8.75;8.25;;;;;24.48;45.16;100559.13;5097956;27;45578;-48
2022/09/15 08:17:50;;;;;;;;;6.50;6.00;;;;;24.49;45.00;100562.66;5100394;27;45482;-47
2022/09/15 08:20:16;;;;;;;;;8.75;7.00;;;;;24.49;44.97;100566.13;5111586;27;45442;-50
2022/09/15 08:22:42;;;;;;;;;9.75;9.00;;;;;24.50;45.31;100573.13;5114931;27;45392;-52
2022/09/15 08:25:08;;;;;;;;;10.25;7.50;;;;;24.50;45.24;100572.28;5111786;27;45432;-51
2022/09/15 08:27:33;;;;;;;;;7.50;7.00;;;;;24.51;44.42;100579.28;5099693;27;46413;-52
2022/09/15 08:29:58;;;;;;;;;8.67;8.33;;;;;24.51;44.36;100585.41;5096912;27;58752;-50
2022/09/15 08:32:24;;;;;;;;;6.50;6.25;;;;;24.52;44.79;100591.56;5097239;27;45251;-46
2022/09/15 08:34:49;;;;;;;;;7.00;6.50;;;;;24.53;44.33;100603.81;5097595;27;45321;-49
2022/09/15 08:37:15;;;;;;;;;6.75;6.75;;;;;24.54;44.45;100606.38;5097015;27;54851;-48
2022/09/15 08:39:40;;;;;;;;;7.25;7.00;;;;;24.56;44.31;100608.88;5097397;27;45803;-47
2022/09/15 08:42:13;;;;;;;;;6.25;5.75;;;;;24.56;44.76;100611.53;5097252;27;50778;-47
2022/09/15 08:44:45;;;;;;;;;8.25;7.25;;;;;24.58;44.69;100614.91;5096495;27;45340;-48
2022/09/15 08:47:13;;;;;;;;;9.00;6.25;;;;;24.59;44.04;100613.97;5102333;27;46370;-47
2022/09/15 08:49:48;;;;;;;;;7.75;6.25;;;;;24.59;44.50;100619.25;5111349;27;45107;-48
2022/09/15 08:52:21;;;;;;;;;6.00;6.00;;;;;24.59;43.95;100608.66;5108303;27;44796;-46
2022/09/15 08:54:50;;;;;;;;;6.50;6.50;;;;;24.58;44.56;100612.28;5099116;27;45390;-46
2022/09/15 08:57:20;;;;;;;;;6.50;6.00;;;;;24.59;43.82;100619.25;5101040;27;45422;-48
2022/09/15 08:59:45;;;;;;;;;6.25;6.00;;;;;24.59;43.86;100619.25;5114044;27;45499;-50
2022/09/15 09:02:11;;;;;;;;;8.50;8.00;;;;;24.59;44.24;100615.75;5099072;27;45263;-48
2022/09/15 09:05:05;;;;;;;;;6.00;5.75;;;;;24.60;44.13;100620.94;5097017;27;45340;-46
2022/09/15 09:07:47;;;;;;;;;7.75;6.75;;;;;24.60;44.20;100614.78;5095885;27;47012;-48
2022/09/15 09:10:16;;;;;;;;;7.00;7.00;;;;;24.59;43.82;100616.63;5097396;27;45831;-50
2022/09/15 09:12:50;;;;;;;;;6.25;6.25;;;;;24.60;44.29;100613.00;5096306;27;45392;-50
2022/09/15 09:16:00;;;;;;;;;6.00;5.00;;;;;24.61;44.11;100617.34;5095864;27;45543;-50
2022/09/15 09:18:45;;;;;;;;;7.25;7.00;;;;;24.61;44.33;100616.50;5097366;27;47010;-47
2022/09/15 09:21:10;;;;;;;;;9.00;6.75;;;;;24.62;43.91;100619.03;5097000;27;45406;-46
2022/09/15 09:23:45;;;;;;;;;6.00;6.00;;;;;24.61;43.64;100609.41;5097051;27;45403;-47
2022/09/15 09:26:12;;;;;;;;;6.25;6.00;;;;;24.62;44.11;100619.03;5097265;27;45375;-46
2022/09/15 09:28:44;;;;;;;;;3.25;3.25;;;;;24.62;44.11;100619.03;5095870;27;45694;-47
2022/09/15 09:31:17;;;;;;;;;6.75;5.50;;;;;24.63;43.66;100619.88;5096402;27;45264;-47
2022/09/15 09:33:55;;;;;;;;;5.75;5.75;;;;;24.63;43.61;100620.72;5096015;27;45503;-53
2022/09/15 09:36:20;;;;;;;;;5.00;5.00;;;;;24.62;43.65;100619.03;5096459;27;45303;-50
2022/09/15 09:38:47;;;;;;;;;6.00;6.00;;;;;24.63;43.58;100623.38;5096072;27;47377;-48
2022/09/15 09:41:24;;;;;;;;;5.50;5.50;;;;;24.63;43.66;100623.38;5096206;27;45866;-48
2022/09/15 09:43:52;;;;;;;;;8.75;4.50;;;;;24.62;43.70;100624.34;5095704;27;45484;-51
2022/09/15 09:46:18;;;;;;;;;6.00;4.75;;;;;24.62;43.21;100619.03;5097010;27;45563;-47
2022/09/15 09:48:53;;;;;;;;;8.25;4.75;;;;;24.64;43.26;100618.91;5096111;27;45658;-49
2022/09/15 09:51:33;;;;;;;;;7.25;6.00;;;;;24.63;43.23;100620.72;5096234;27;45745;-50
2022/09/15 09:54:15;;;;;;;;;5.00;5.00;;;;;24.62;43.61;100627.00;5096066;27;45317;-51
2022/09/15 09:56:44;;;;;;;;;5.00;5.00;;;;;24.62;43.08;100632.28;5098296;27;45239;-47
2022/09/15 09:59:46;;;;;;;;;4.75;4.75;;;;;24.62;43.53;100624.34;5092992;27;48151;-51
2022/09/15 10:02:16;;;;;;;;;3.00;3.00;;;;;24.62;43.59;100629.63;5084437;27;45287;-46
2022/09/15 10:05:12;;;;;;;;;6.50;5.25;;;;;24.63;43.37;100626.03;5096445;27;45343;-48
2022/09/15 10:07:44;;;;;;;;;6.00;5.00;;;;;24.63;43.13;100628.69;5090375;27;45321;-49
2022/09/15 10:10:22;;;;;;;;;7.25;4.25;;;;;24.63;43.25;100635.75;5096768;27;45858;-46
2022/09/15 10:12:49;;;;;;;;;4.75;4.75;;;;;24.64;42.92;100632.16;5095375;27;45317;-47
2022/09/15 10:15:24;;;;;;;;;3.50;3.25;;;;;24.63;43.02;100619.88;5098544;27;45322;-46
2022/09/15 10:17:51;;;;;;;;;4.25;4.00;;;;;24.64;42.94;100626.84;5100816;27;45392;-48
2022/09/15 10:20:31;;;;;;;;;5.25;5.25;;;;;24.64;43.28;100627.69;5116796;27;46670;-52
2022/09/15 10:23:06;;;;;;;;;0.75;0.75;;;;;24.65;43.41;100624.09;5101831;27;45420;-49
2022/09/15 10:25:36;;;;;;;;;5.50;5.50;;;;;24.67;42.98;100623.97;5099322;27;45413;-50
2022/09/15 10:28:14;;;;;;;;;6.00;5.25;;;;;24.65;43.41;100616.13;5099143;27;45460;-53
2022/09/15 10:31:02;;;;;;;;;5.00;5.00;;;;;24.66;42.80;100620.47;5099317;27;45436;-48
2022/09/15 10:33:43;;;;;;;;;9.00;6.00;;;;;24.66;43.10;100620.47;5099899;27;45716;-53
2022/09/15 10:36:18;;;;;;;;;4.75;4.75;;;;;24.67;42.83;100623.97;5099395;27;45287;-52
2022/09/15 10:39:19;;;;;;;;;3.50;3.50;;;;;24.66;42.82;100625.78;5104179;27;45285;-51
2022/09/15 10:42:10;;;;;;;;;6.00;5.00;;;;;24.65;43.05;100623.25;5111900;27;46782;-45
2022/09/15 10:45:05;;;;;;;;;6.00;4.50;;;;;24.66;43.00;100624.94;5087657;27;45885;-47
2022/09/15 10:47:51;;;;;;;;;6.25;5.00;;;;;24.64;42.75;100622.38;5096883;27;45324;-47
2022/09/15 10:50:53;;;;;;;;;4.50;4.50;;;;;24.65;42.39;100623.25;5099729;27;45297;-46
2022/09/15 10:53:30;;;;;;;;;5.00;4.25;;;;;24.64;42.69;100629.50;5098963;27;46533;-45
2022/09/15 10:56:26;;;;;;;;;4.25;4.25;;;;;24.64;43.05;100629.50;5099267;27;45394;-47
2022/09/15 10:59:10;;;;;;;;;5.00;3.75;;;;;24.65;43.15;100631.19;5098098;27;45552;-47
2022/09/15 11:01:51;;;;;;;;;3.00;3.00;;;;;24.65;42.16;100628.56;5099715;27;45388;-49
2022/09/15 11:04:28;;;;;;;;;5.00;4.75;;;;;24.66;42.83;100627.59;5099127;27;46287;-45
2022/09/15 11:07:03;;;;;;;;;5.25;5.25;;;;;24.66;42.47;100622.28;5099305;27;45623;-50
2022/09/15 11:09:45;;;;;;;;;6.00;5.00;;;;;24.67;42.74;100627.47;5099598;27;45344;-46
2022/09/15 11:12:42;;;;;;;;;3.25;3.25;;;;;24.68;42.43;100623.88;5099619;27;45394;-49
2022/09/15 11:15:10;;;;;;;;;4.75;4.00;;;;;24.70;42.20;100621.97;5113985;27;45803;-47
2022/09/15 11:18:15;;;;;;;;;4.50;4.50;;;;;24.70;42.19;100616.66;5109671;27;45333;-48
2022/09/15 11:20:42;;;;;;;;;4.75;4.00;;;;;24.70;42.25;100616.66;5118403;27;45397;-49
2022/09/15 11:23:22;;;;;;;;;3.25;3.00;;;;;24.72;42.53;100613.06;5107589;27;45388;-52
2022/09/15 11:25:53;;;;;;;;;3.00;3.00;;;;;24.74;42.79;100616.44;5111797;27;45506;-49
2022/09/15 11:28:37;;;;;;;;;4.25;2.50;;;;;24.74;42.24;100609.31;5099084;27;45425;-48
2022/09/15 11:31:45;;;;;;;;;5.00;4.25;;;;;24.74;42.13;100608.50;5098957;27;45396;-50
2022/09/15 11:34:25;;;;;;;;;4.00;3.00;;;;;24.75;42.78;100603.06;5098791;27;45550;-48
2022/09/15 11:37:01;;;;;;;;;5.50;5.00;;;;;24.76;42.23;100610.06;5099286;27;46521;-51
2022/09/15 11:39:38;;;;;;;;;4.50;4.50;;;;;24.77;42.18;100610.88;5116049;27;45368;-53
2022/09/15 11:42:14;;;;;;;;;5.00;5.00;;;;;24.78;42.80;100604.63;5103491;27;45376;-49